Time;durP1;ratioP1;P1;durP2;ratioP2;P2;SDS_P1;SDS_P2;PMS_P1;PMS_P2;Temp;Humidity;BMP_temperature;BMP_pressure;BME280_temperature;BME280_humidity;BME280_pressure;Samples;Min_cycle;Max_cycle;Signal;HPM_P1;HPM_P2
2021/01/27 00:04:17;;;;;;;5.82;3.25;;;;;;;1.13;81.47;97832.28;5651800;23;20591;-76
2021/01/27 00:06:43;;;;;;;4.35;2.80;;;;;;;1.11;82.00;97828.06;4877363;29;20059;-77
2021/01/27 00:09:08;;;;;;;4.93;2.55;;;;;;;1.08;81.73;97828.53;4861422;29;20049;-78
2021/01/27 00:42:02;;;;;;;7.95;4.32;;;;;;;1.08;82.49;97823.25;5552214;23;20136;-78
2021/01/27 00:44:27;;;;;;;4.97;3.30;;;;;;;1.06;82.27;97812.19;4861523;29;20060;-80
2021/01/27 00:59:49;;;;;;;6.35;3.20;;;;;;;1.01;82.69;97791.03;5541490;23;20262;-82
2021/01/27 01:02:14;;;;;;;4.97;3.50;;;;;;;1.01;82.69;97788.41;4886597;29;20032;-81
2021/01/27 01:04:40;;;;;;;5.60;3.58;;;;;;;1.03;82.49;97777.66;4884187;29;20493;-80
2021/01/27 01:07:05;;;;;;;6.38;3.28;;;;;;;1.02;82.17;97778.69;4889696;29;20031;-80
2021/01/27 01:09:30;;;;;;;4.25;3.17;;;;;;;1.01;82.36;97783.16;4894563;29;20446;-80
2021/01/27 01:18:52;;;;;;;7.90;3.90;;;;;;;0.99;82.70;97779.97;5964369;23;20075;31
2021/01/27 01:25:02;;;;;;;6.43;4.25;;;;;;;0.98;82.68;97777.56;5975432;23;20043;-79
2021/01/27 01:27:27;;;;;;;6.70;3.50;;;;;;;1.00;82.63;97780.75;4871695;29;20056;-79
2021/01/27 01:29:52;;;;;;;5.57;3.80;;;;;;;1.00;82.53;97775.50;5361145;23;20124;-80
2021/01/27 01:32:18;;;;;;;6.93;4.22;;;;;;;1.02;82.47;97771.59;4883795;29;20049;-81
2021/01/27 01:34:48;;;;;;;8.18;3.88;;;;;;;1.03;82.41;97764.50;5102479;23;20503;-81
2021/01/27 01:57:31;;;;;;;6.35;4.38;;;;;;;0.96;82.30;97738.34;5138291;23;20057;-78
2021/01/27 02:00:01;;;;;;;5.65;3.15;;;;;;;0.93;82.76;97734.38;4890121;29;20459;-79
2021/01/27 02:02:27;;;;;;;7.55;4.35;;;;;;;0.92;82.54;97734.63;4883108;29;20093;-80
2021/01/27 02:08:54;;;;;;;6.15;3.78;;;;;;;0.84;83.00;97742.94;4881285;29;20063;-80
2021/01/27 02:11:39;;;;;;;8.40;4.18;;;;;;;0.87;83.25;97743.25;4839125;29;20036;-79
2021/01/27 02:14:49;;;;;;;6.53;4.10;;;;;;;0.86;82.93;97748.75;4853941;29;20041;-80
2021/01/27 02:24:05;;;;;;;7.13;3.70;;;;;;;0.79;82.99;97755.00;5164603;23;20072;-79
2021/01/27 02:29:34;;;;;;;5.10;3.30;;;;;;;0.79;83.45;97741.84;4912285;29;20060;-81
2021/01/27 02:32:18;;;;;;;5.75;3.35;;;;;;;0.78;83.36;97740.25;4873687;29;20471;-78
2021/01/27 02:35:08;;;;;;;3.35;2.13;;;;;;;0.76;83.44;97755.47;4883452;29;20076;-79
2021/01/27 02:37:40;;;;;;;7.88;3.80;;;;;;;0.79;83.54;97754.19;4881907;29;20036;-78
2021/01/27 02:40:26;;;;;;;9.15;3.60;;;;;;;0.79;83.19;97748.94;4881233;29;20020;-78
2021/01/27 02:43:15;;;;;;;6.70;3.63;;;;;;;0.80;83.35;97768.94;4883598;29;20040;-79
2021/01/27 02:45:46;;;;;;;4.78;3.30;;;;;;;0.80;83.30;97782.88;4874532;29;20021;-81
2021/01/27 02:48:19;;;;;;;5.70;3.72;;;;;;;0.82;83.37;97772.13;4892579;29;20051;-81
2021/01/27 02:50:56;;;;;;;4.93;3.30;;;;;;;0.83;83.43;97792.16;4883046;29;20031;-80
2021/01/27 02:53:29;;;;;;;5.18;3.50;;;;;;;0.83;83.51;97792.16;4887409;29;20040;-78
2021/01/27 02:56:10;;;;;;;7.63;4.45;;;;;;;0.82;83.42;97801.09;4881607;29;20080;-78
2021/01/27 02:59:22;;;;;;;5.90;3.35;;;;;;;0.81;83.36;97799.50;4880665;29;20040;-78
2021/01/27 03:02:17;;;;;;;4.18;2.53;;;;;;;0.83;83.41;97805.31;4862331;29;20554;-80
2021/01/27 03:04:53;;;;;;;5.50;3.00;;;;;;;0.84;83.05;97798.19;4853492;29;20044;-80
2021/01/27 03:07:21;;;;;;;3.95;3.03;;;;;;;0.86;83.14;97815.34;4862586;29;20603;-80
2021/01/27 03:09:55;;;;;;;6.63;3.58;;;;;;;0.88;82.91;97825.63;4864357;29;20491;-78
2021/01/27 03:13:16;;;;;;;5.90;3.05;;;;;;;0.89;83.04;97832.47;4863569;29;20052;-82
2021/01/27 03:19:46;;;;;;;6.40;3.38;;;;;;;0.92;83.03;97839.91;5822748;23;21073;-83
2021/01/27 03:22:18;;;;;;;5.25;2.88;;;;;;;0.91;82.79;97839.09;4878801;29;20049;-79
2021/01/27 03:28:06;;;;;;;6.35;3.53;;;;;;;0.93;82.91;97838.88;5030257;23;20107;-81
2021/01/27 03:30:36;;;;;;;7.23;3.70;;;;;;;0.95;82.96;97837.59;4866234;29;20379;-79
2021/01/27 03:33:42;;;;;;;5.47;3.50;;;;;;;0.97;82.85;97826.03;4881017;29;20025;-81
2021/01/27 03:42:45;;;;;;;6.32;3.78;;;;;;;0.98;82.52;97852.09;5146384;23;20127;-79
2021/01/27 03:45:16;;;;;;;6.20;3.40;;;;;;;0.98;82.54;97846.84;4927690;24;20065;-82
2021/01/27 04:00:59;;;;;;;5.43;3.25;;;;;;;0.93;83.02;97809.91;4997676;24;20044;-80
2021/01/27 04:03:24;;;;;;;5.50;3.00;;;;;;;0.91;82.73;97810.13;4923951;24;20531;-79
2021/01/27 04:11:46;;;;;;;5.28;2.95;;;;;;;0.90;82.53;97810.38;5388063;23;20049;-79
2021/01/27 04:14:17;;;;;;;6.57;3.80;;;;;;;0.91;82.95;97791.72;4863701;29;20040;-80
2021/01/27 04:17:24;;;;;;;5.75;3.55;;;;;;;0.92;83.00;97814.38;4848690;29;20045;-80
2021/01/27 04:20:50;;;;;;;6.38;3.50;;;;;;;0.93;82.92;97809.91;4793521;30;20502;-81
2021/01/27 04:23:45;;;;;;;6.30;3.65;;;;;;;0.93;83.09;97817.81;4793990;30;20035;-80
2021/01/27 04:30:03;;;;;;;5.50;3.00;;;;;;;0.93;82.67;97818.59;5280410;23;20067;-81
2021/01/27 04:32:58;;;;;;;5.80;2.88;;;;;;;0.92;82.89;97816.22;4867214;29;20116;-81
2021/01/27 04:38:37;;;;;;;4.05;2.40;;;;;;;0.91;82.79;97823.31;5437761;23;20068;-78
2021/01/27 04:41:04;;;;;;;5.97;2.75;;;;;;;0.92;83.22;97832.00;4862989;29;20036;-78
2021/01/27 04:43:39;;;;;;;3.65;2.63;;;;;;;0.91;83.00;97833.06;4860775;29;20028;-78
2021/01/27 04:46:09;;;;;;;3.25;2.22;;;;;;;0.90;83.11;97844.63;4858620;29;20033;-79
2021/01/27 04:49:06;;;;;;;3.53;2.28;;;;;;;0.92;82.97;97850.44;4852182;29;20056;-78
2021/01/27 04:51:45;;;;;;;4.85;2.75;;;;;;;0.91;82.95;97849.63;4861068;29;20033;-78
2021/01/27 04:54:23;;;;;;;4.78;2.38;;;;;;;0.89;82.93;97857.00;4861356;29;20096;-80
2021/01/27 04:56:48;;;;;;;4.93;2.70;;;;;;;0.92;82.96;97864.38;4869314;29;20498;-78
2021/01/27 04:59:26;;;;;;;5.72;3.35;;;;;;;0.94;83.21;97864.13;4873144;29;20029;-80
2021/01/27 05:02:22;;;;;;;4.40;2.92;;;;;;;0.93;83.07;97865.97;4857700;29;20035;-80
2021/01/27 05:05:03;;;;;;;6.55;3.50;;;;;;;0.94;82.96;97891.28;4847413;29;20165;-77
2021/01/27 05:07:37;;;;;;;3.45;2.60;;;;;;;0.97;82.91;97892.63;4842172;29;20033;-78
2021/01/27 05:10:04;;;;;;;4.88;3.15;;;;;;;0.97;82.77;97894.47;4857604;29;20498;-78
2021/01/27 05:13:23;;;;;;;4.70;3.22;;;;;;;0.98;82.79;97896.84;4845162;29;20021;-81
2021/01/27 05:15:49;;;;;;;5.18;3.45;;;;;;;0.97;82.59;97879.47;4782921;30;20036;-79
2021/01/27 05:18:15;;;;;;;6.70;3.08;;;;;;;0.97;82.40;97874.19;4763431;30;20131;-79
2021/01/27 05:24:31;;;;;;;4.90;3.05;;;;;;;1.03;82.38;97881.13;4822097;24;20084;-79
2021/01/27 05:27:17;;;;;;;4.30;2.67;;;;;;;1.05;82.42;97868.53;4843295;29;20499;-78
2021/01/27 05:29:54;;;;;;;4.05;2.83;;;;;;;1.05;82.28;97871.16;4841872;29;20042;-78
2021/01/27 05:32:22;;;;;;;6.90;3.70;;;;;;;1.06;82.25;97893.81;4848748;29;20097;-80
2021/01/27 05:34:53;;;;;;;6.97;2.65;;;;;;;1.06;82.11;97895.63;4847869;29;20048;-79
2021/01/27 05:45:28;;;;;;;5.00;2.92;;;;;;;1.07;81.95;97884.84;5225750;23;20072;-80
2021/01/27 05:47:55;;;;;;;4.53;2.85;;;;;;;1.06;82.19;97878.03;4866246;29;20220;-81
2021/01/27 06:04:04;;;;;;;4.20;2.90;;;;;;;1.11;81.88;97870.19;5569553;23;20064;31
2021/01/27 06:15:39;;;;;;;5.70;3.80;;;;;;;1.10;81.66;97823.03;5599519;23;20041;-84
2021/01/27 06:18:20;;;;;;;6.47;3.33;;;;;;;1.17;81.52;97833.38;4863897;29;20049;-83
2021/01/27 06:29:58;;;;;;;3.97;2.53;;;;;;;1.27;80.69;97818.50;5527029;23;20042;31
2021/01/27 06:35:42;;;;;;;5.75;2.70;;;;;;;1.32;80.32;97827.50;5110358;23;20053;-80
2021/01/27 06:38:51;;;;;;;5.50;3.35;;;;;;;1.27;80.65;97817.72;5189769;24;20093;-81
2021/01/27 06:47:22;;;;;;;7.28;3.45;;;;;;;1.46;79.96;97841.09;5259173;23;19914;-79
2021/01/27 06:49:58;;;;;;;4.32;3.10;;;;;;;1.48;79.64;97846.91;4861133;29;20077;-78
2021/01/27 06:53:04;;;;;;;6.03;2.90;;;;;;;1.51;80.24;97834.03;4859508;29;20047;-80
2021/01/27 07:07:24;;;;;;;3.75;2.83;;;;;;;1.59;78.90;97819.66;4845879;29;20045;-79
2021/01/27 07:10:28;;;;;;;8.68;4.40;;;;;;;1.59;79.24;97819.66;4847647;29;20052;-82
2021/01/27 07:14:04;;;;;;;9.23;4.63;;;;;;;1.58;78.91;97829.38;4857950;29;20032;-83
2021/01/27 07:16:41;;;;;;;8.48;4.20;;;;;;;1.63;79.32;97844.44;4829760;29;20034;-81
2021/01/27 07:19:54;;;;;;;11.10;4.65;;;;;;;1.63;78.94;97833.13;4888409;24;20063;-83
2021/01/27 07:22:30;;;;;;;9.73;5.25;;;;;;;1.59;78.83;97827.56;4898061;29;20069;-80
2021/01/27 07:25:15;;;;;;;9.18;4.68;;;;;;;1.62;78.61;97837.59;4877571;29;20069;-80
2021/01/27 07:27:54;;;;;;;10.32;5.22;;;;;;;1.60;78.41;97829.16;4880846;29;20111;-79
2021/01/27 07:30:24;;;;;;;8.32;4.85;;;;;;;1.55;78.50;97829.88;4891147;29;20438;-79
2021/01/27 07:32:57;;;;;;;8.43;4.68;;;;;;;1.61;79.11;97830.72;4872684;29;20032;-79
2021/01/27 07:35:32;;;;;;;10.80;5.55;;;;;;;1.63;79.00;97823.38;4877525;29;20024;-79
2021/01/27 07:38:07;;;;;;;7.93;4.18;;;;;;;1.67;78.83;97832.38;4876261;29;20039;-79
2021/01/27 07:40:49;;;;;;;9.13;4.80;;;;;;;1.72;78.74;97821.09;4880156;29;20032;-79
2021/01/27 07:43:27;;;;;;;7.95;4.50;;;;;;;1.76;78.32;97825.63;4875217;29;20508;-79
2021/01/27 07:45:56;;;;;;;8.77;4.70;;;;;;;1.82;78.14;97831.75;4876737;29;20067;-79
2021/01/27 07:48:34;;;;;;;7.68;4.65;;;;;;;1.86;77.63;97838.09;4894593;29;20040;-79
2021/01/27 07:51:05;;;;;;;5.05;3.58;;;;;;;1.87;77.89;97839.69;4878132;29;20059;-79
2021/01/27 07:53:37;;;;;;;10.45;4.60;;;;;;;1.95;77.53;97848.22;4878169;29;20024;-79
2021/01/27 07:56:27;;;;;;;7.50;4.70;;;;;;;1.97;77.18;97844.28;4865394;29;20409;-81
2021/01/27 07:59:17;;;;;;;7.90;4.82;;;;;;;2.02;77.19;97862.78;4885579;29;20021;-79
2021/01/27 08:01:47;;;;;;;7.25;4.55;;;;;;;2.06;76.74;97858.63;4877028;29;20108;-80
2021/01/27 08:04:26;;;;;;;7.38;4.78;;;;;;;2.15;76.21;97868.69;4859729;29;20025;-79
2021/01/27 08:06:54;;;;;;;10.52;5.82;;;;;;;2.13;76.10;97870.81;4878867;29;20697;-79
2021/01/27 08:09:42;;;;;;;8.82;4.13;;;;;;;2.18;76.00;97874.25;4877969;29;20065;-79
2021/01/27 08:12:33;;;;;;;8.65;4.43;;;;;;;2.20;75.84;97871.41;4859941;29;20040;-78
2021/01/27 08:15:35;;;;;;;7.93;4.35;;;;;;;2.21;75.62;97876.41;4882841;29;20024;-79
2021/01/27 08:18:19;;;;;;;7.78;4.45;;;;;;;2.23;75.56;97873.53;4831716;29;20117;-76
2021/01/27 08:23:23;;;;;;;5.88;4.18;;;;;;;2.32;75.71;97881.75;5281345;23;20053;-78
2021/01/27 08:26:00;;;;;;;6.07;3.97;;;;;;;2.35;75.44;97883.91;4861143;29;20036;-78
2021/01/27 08:28:38;;;;;;;7.18;3.88;;;;;;;2.34;75.58;97891.03;4865703;29;20029;-77
2021/01/27 08:31:07;;;;;;;7.88;4.10;;;;;;;2.38;75.35;97897.41;4860929;29;20029;-77
2021/01/27 08:33:41;;;;;;;8.40;4.45;;;;;;;2.36;75.20;97888.94;4877300;29;20032;-77
2021/01/27 08:36:10;;;;;;;8.52;4.40;;;;;;;2.33;74.97;97897.38;4876220;29;20052;-77
2021/01/27 08:38:40;;;;;;;9.70;4.60;;;;;;;2.30;74.90;97900.50;4860036;29;20029;-77
2021/01/27 08:41:10;;;;;;;7.57;4.65;;;;;;;2.30;75.67;97908.41;4860229;29;20029;-77
2021/01/27 08:43:41;;;;;;;8.05;5.20;;;;;;;2.27;75.22;97901.00;4860021;29;20029;-78
2021/01/27 08:46:43;;;;;;;9.07;4.65;;;;;;;2.23;76.46;97897.25;4860515;29;20124;-77
2021/01/27 08:49:10;;;;;;;9.20;4.57;;;;;;;2.18;76.20;97894.56;4838762;29;20041;-79
2021/01/27 08:51:59;;;;;;;9.80;5.45;;;;;;;2.21;76.34;97905.44;4859629;29;20467;-78
2021/01/27 08:54:47;;;;;;;9.18;5.05;;;;;;;2.27;76.44;97906.28;4840124;29;20029;-78
2021/01/27 08:57:33;;;;;;;;;;;;;;;2.32;75.91;97905.50;4849140;29;20154;-78
2021/01/27 09:00:34;;;;;;;10.52;5.22;;;;;;;2.41;75.93;97904.03;4879112;29;20403;-78
2021/01/27 09:03:02;;;;;;;9.98;5.18;;;;;;;2.47;75.38;97916.22;4856340;29;20056;-78
2021/01/27 09:05:28;;;;;;;11.38;6.00;;;;;;;2.54;75.55;97921.31;4885131;29;20040;-78
2021/01/27 09:07:54;;;;;;;10.63;5.40;;;;;;;2.58;75.28;97924.25;4860573;29;20029;-78
2021/01/27 09:10:26;;;;;;;8.80;4.80;;;;;;;2.63;74.87;97929.56;4860163;29;20073;-79
2021/01/27 09:12:52;;;;;;;10.32;5.65;;;;;;;2.67;75.13;97920.88;4859556;29;20267;-79
2021/01/27 09:15:29;;;;;;;8.73;5.80;;;;;;;2.77;74.81;97927.28;4860537;29;20471;-79
2021/01/27 09:17:57;;;;;;;10.10;4.70;;;;;;;2.75;73.50;97911.69;4860602;29;20056;-80
2021/01/27 09:20:28;;;;;;;7.50;5.07;;;;;;;2.75;73.33;97919.63;4862127;29;20070;-80
2021/01/27 09:23:04;;;;;;;8.32;4.03;;;;;;;2.78;73.66;97929.66;4860591;29;20032;-78
2021/01/27 09:25:31;;;;;;;12.35;4.70;;;;;;;2.77;73.08;97929.91;4860485;29;20177;-78
2021/01/27 09:28:01;;;;;;;8.93;4.18;;;;;;;2.78;73.64;97940.22;4859322;29;20033;-77
2021/01/27 09:30:27;;;;;;;6.45;4.00;;;;;;;2.76;73.49;97937.06;4876525;29;20029;-77
2021/01/27 09:33:27;;;;;;;6.43;3.03;;;;;;;2.71;72.92;97937.81;4876375;29;20601;-77
2021/01/27 09:36:06;;;;;;;6.55;3.90;;;;;;;2.68;73.88;97945.44;4858993;29;20101;-79
2021/01/27 09:38:32;;;;;;;8.82;3.63;;;;;;;2.58;74.08;97948.78;4861265;29;20029;-78
2021/01/27 09:41:04;;;;;;;7.70;4.60;;;;;;;2.59;74.78;97947.72;4870158;29;20108;-79
2021/01/27 09:43:36;;;;;;;8.07;4.72;;;;;;;2.59;74.58;97957.47;4879226;29;20039;-80
2021/01/27 09:46:20;;;;;;;4.97;3.30;;;;;;;2.56;74.87;97964.88;4875930;29;20040;-80
2021/01/27 09:48:47;;;;;;;6.88;3.92;;;;;;;2.53;74.76;97969.84;4860900;29;20029;-78
2021/01/27 09:51:15;;;;;;;6.65;3.58;;;;;;;2.52;74.64;97979.59;4860767;29;20112;-78
2021/01/27 09:53:41;;;;;;;5.35;3.75;;;;;;;2.54;75.04;97988.06;4876888;29;20037;-78
2021/01/27 09:56:09;;;;;;;6.30;3.92;;;;;;;2.54;74.81;97992.56;4860315;29;20406;-79
2021/01/27 09:58:39;;;;;;;8.18;4.03;;;;;;;2.59;74.87;97989.97;4860685;29;20033;-76
2021/01/27 10:01:07;;;;;;;7.43;4.45;;;;;;;2.60;74.80;97993.38;4859782;29;20127;-79
2021/01/27 10:03:54;;;;;;;10.23;4.57;;;;;;;2.63;74.72;97996.31;4876847;29;20517;-78
2021/01/27 10:06:37;;;;;;;10.38;4.75;;;;;;;2.70;74.57;98001.41;4854664;29;20033;-79
2021/01/27 10:09:31;;;;;;;8.25;4.70;;;;;;;2.68;73.99;97995.59;4872426;29;20028;-79
2021/01/27 10:12:10;;;;;;;8.40;4.07;;;;;;;2.69;74.03;97994.53;4864893;29;20022;-79
2021/01/27 10:14:39;;;;;;;5.75;3.33;;;;;;;2.71;73.86;97981.88;4844120;29;20413;-80
2021/01/27 10:17:09;;;;;;;6.45;4.28;;;;;;;2.72;73.78;97971.06;4844673;29;20278;-79
2021/01/27 10:19:47;;;;;;;5.10;3.95;;;;;;;2.78;74.07;97971.13;4845245;29;20089;-78
2021/01/27 10:22:13;;;;;;;6.68;4.57;;;;;;;2.86;73.44;97966.16;4846220;29;20033;-80
2021/01/27 10:24:47;;;;;;;6.07;3.88;;;;;;;2.97;73.93;97958.34;4876706;29;20181;-79
2021/01/27 10:27:37;;;;;;;7.65;3.97;;;;;;;3.11;73.19;97958.69;4860882;29;20463;-79
2021/01/27 10:30:11;;;;;;;9.43;4.65;;;;;;;3.23;72.78;97959.31;4853238;29;20131;-78
2021/01/27 10:32:43;;;;;;;10.52;3.95;;;;;;;3.32;72.28;97955.13;4874479;29;20033;-79
2021/01/27 10:35:27;;;;;;;9.52;4.82;;;;;;;3.44;71.74;97943.56;4861809;29;20116;-80
2021/01/27 10:38:48;;;;;;;10.35;5.32;;;;;;;3.55;70.96;97939.13;4867853;29;20029;-82
2021/01/27 10:42:01;;;;;;;6.70;4.18;;;;;;;3.65;69.72;97947.09;4870772;29;20059;-81
2021/01/27 10:45:39;;;;;;;10.18;4.78;;;;;;;3.73;69.88;97948.47;4877714;29;20037;-81
2021/01/27 10:48:52;;;;;;;8.35;4.40;;;;;;;3.77;69.56;97950.34;4879616;29;20053;-81
2021/01/27 10:52:06;;;;;;;7.88;4.38;;;;;;;3.76;69.03;97959.34;4870689;29;20049;-82
2021/01/27 10:55:36;;;;;;;6.85;4.50;;;;;;;3.64;68.22;97962.19;4807938;29;20042;-82
2021/01/27 10:58:12;;;;;;;6.97;5.32;;;;;;;3.60;68.56;97953.19;4734489;30;20063;-80
2021/01/27 11:00:56;;;;;;;6.45;3.92;;;;;;;3.55;68.76;97947.84;4751536;30;20470;-80
2021/01/27 11:03:22;;;;;;;6.38;3.65;;;;;;;3.45;68.79;97948.59;4812784;29;20167;-80
2021/01/27 11:06:38;;;;;;;7.32;3.75;;;;;;;3.42;68.29;97959.69;4837982;29;20124;-81
2021/01/27 11:09:03;;;;;;;5.95;3.33;;;;;;;3.35;67.38;97961.75;4809884;29;20038;-80
2021/01/27 11:12:07;;;;;;;4.32;3.45;;;;;;;3.32;67.45;97946.41;4857898;29;20110;-81
2021/01/27 11:15:39;;;;;;;5.70;3.65;;;;;;;3.31;67.60;97947.47;4784678;30;20043;-81
2021/01/27 11:18:18;;;;;;;7.05;4.10;;;;;;;3.29;68.21;97947.72;4776074;29;20139;-80
2021/01/27 11:20:43;;;;;;;7.60;4.10;;;;;;;3.26;68.17;97948.22;4796862;29;20090;-80
2021/01/27 11:23:08;;;;;;;6.57;3.72;;;;;;;3.30;67.26;97949.31;4807963;29;20170;-80
2021/01/27 11:29:00;;;;;;;6.20;4.03;;;;;;;3.29;68.29;97955.63;4805427;29;20038;-79
2021/01/27 11:31:44;;;;;;;6.50;4.10;;;;;;;3.33;67.83;97938.25;4794190;29;20038;-82
2021/01/27 11:34:58;;;;;;;8.27;4.95;;;;;;;3.34;68.09;97942.47;4794574;29;20050;-81
2021/01/27 11:41:01;;;;;;;7.57;4.85;;;;;;;3.39;68.23;97948.81;4803218;29;20045;-80
2021/01/27 11:43:29;;;;;;;10.80;5.15;;;;;;;3.35;68.08;97951.97;4820431;29;20042;-80
2021/01/27 11:49:34;;;;;;;13.63;6.45;;;;;;;3.44;68.00;97954.13;4892301;29;20043;-81
2021/01/27 11:52:49;;;;;;;13.38;6.50;;;;;;;3.41;67.50;97957.31;4852399;29;20549;-82
2021/01/27 13:15:07;;;;;;;9.43;5.50;;;;;;;3.50;63.17;97976.91;4885417;29;20039;-80
2021/01/27 13:17:33;;;;;;;9.70;4.90;;;;;;;3.46;63.05;97986.41;4862370;29;20073;-79
2021/01/27 13:19:59;;;;;;;8.68;5.40;;;;;;;3.40;62.47;97990.06;4861045;29;20036;-79
2021/01/27 13:22:24;;;;;;;10.85;5.47;;;;;;;3.35;63.01;97991.63;4859636;29;20093;-80
2021/01/27 13:24:49;;;;;;;8.05;5.30;;;;;;;3.28;62.37;97977.81;4859819;29;20033;-79
2021/01/27 13:27:17;;;;;;;8.13;5.05;;;;;;;3.22;62.01;97981.47;4859576;29;20076;-80
2021/01/27 13:29:42;;;;;;;8.93;6.20;;;;;;;3.20;62.81;97980.97;4858248;29;20116;-78
2021/01/27 13:32:08;;;;;;;7.40;5.13;;;;;;;3.16;62.23;97985.13;4859332;29;20491;-78
2021/01/27 13:34:33;;;;;;;7.45;5.32;;;;;;;3.09;61.75;97998.56;4858860;29;20033;-79
2021/01/27 13:36:59;;;;;;;8.43;5.50;;;;;;;3.05;61.76;98000.13;4859351;29;20033;-78
2021/01/27 13:39:24;;;;;;;7.13;5.57;;;;;;;3.00;62.04;97997.44;4876721;29;20399;-79
2021/01/27 13:41:49;;;;;;;10.20;5.47;;;;;;;2.96;62.41;98006.94;4876091;29;20030;-79
2021/01/27 13:44:15;;;;;;;10.98;5.95;;;;;;;2.94;62.47;97985.25;4859969;29;20051;-79
2021/01/27 13:46:40;;;;;;;10.20;6.07;;;;;;;2.92;62.64;98003.19;4858502;29;20036;-78
2021/01/27 13:49:06;;;;;;;14.23;5.95;;;;;;;2.90;62.78;98010.56;4860606;29;20394;-78
2021/01/27 13:51:31;;;;;;;10.52;5.05;;;;;;;2.90;61.96;98000.00;4859228;29;20021;-77
2021/01/27 13:53:56;;;;;;;9.75;5.40;;;;;;;2.92;62.48;97997.88;4861490;29;20052;-78
2021/01/27 13:56:22;;;;;;;10.73;6.20;;;;;;;2.89;62.88;97999.19;4861290;29;20025;-78
2021/01/27 13:58:47;;;;;;;13.95;6.10;;;;;;;2.86;62.44;97997.84;4878105;29;20107;-78
2021/01/27 14:01:13;;;;;;;12.55;6.25;;;;;;;2.86;62.89;97999.72;4878579;29;20047;-78
2021/01/27 14:03:38;;;;;;;11.77;6.22;;;;;;;2.87;62.96;98006.59;4862470;29;20032;-78
2021/01/27 14:06:04;;;;;;;12.43;5.82;;;;;;;2.81;61.85;98002.31;4877639;29;20028;-78
2021/01/27 14:08:30;;;;;;;14.52;7.43;;;;;;;2.80;63.00;98012.06;4862161;29;20024;-78
2021/01/27 14:10:56;;;;;;;13.43;7.68;;;;;;;2.75;62.91;98004.09;4861451;29;20021;-77
2021/01/27 14:13:21;;;;;;;9.13;5.13;;;;;;;2.72;63.51;98015.16;4859960;29;20080;-80
2021/01/27 14:15:47;;;;;;;10.80;5.60;;;;;;;2.70;63.14;98015.41;4893589;29;20048;-79
2021/01/27 14:18:12;;;;;;;8.70;4.53;;;;;;;2.71;62.72;98010.91;4877416;29;20024;-79
2021/01/27 14:20:37;;;;;;;8.18;5.53;;;;;;;2.71;62.62;98011.72;4879593;29;20494;-79
2021/01/27 14:23:03;;;;;;;10.45;4.45;;;;;;;2.67;62.55;98023.03;4880368;29;20084;-79
2021/01/27 14:25:28;;;;;;;11.48;4.80;;;;;;;2.63;62.11;98006.09;4881116;29;20046;-79
2021/01/27 14:27:56;;;;;;;8.30;4.68;;;;;;;2.59;62.32;98020.81;4881253;29;20024;-79
2021/01/27 14:30:28;;;;;;;5.35;4.35;;;;;;;2.56;62.15;98017.66;4880936;29;20045;-79
2021/01/27 14:32:54;;;;;;;9.55;4.20;;;;;;;2.52;62.28;98015.75;4880452;29;20040;-79
2021/01/27 14:35:23;;;;;;;8.10;4.75;;;;;;;2.52;62.53;98026.31;4880188;29;20084;-79
2021/01/27 14:37:49;;;;;;;13.18;6.28;;;;;;;2.45;62.06;98023.84;4879620;29;20020;-79
2021/01/27 14:40:15;;;;;;;10.05;5.85;;;;;;;2.40;61.73;98018.53;4875925;29;20112;-79
2021/01/27 14:42:41;;;;;;;14.63;6.53;;;;;;;2.37;62.20;98017.19;4880014;29;20088;-79
2021/01/27 14:45:07;;;;;;;11.38;7.03;;;;;;;2.35;62.73;98023.75;4880259;29;20056;-79
2021/01/27 14:47:33;;;;;;;13.18;6.22;;;;;;;2.34;62.79;98016.88;4878594;29;20024;-78
2021/01/27 14:49:59;;;;;;;11.02;5.78;;;;;;;2.32;62.80;98029.53;4880087;29;20032;-79
2021/01/27 14:52:25;;;;;;;12.73;6.57;;;;;;;2.30;62.40;98027.13;4880272;29;20375;-79
2021/01/27 14:54:51;;;;;;;22.90;7.78;;;;;;;2.28;62.36;98029.22;4863878;29;20471;-79
2021/01/27 14:57:16;;;;;;;14.63;6.88;;;;;;;2.29;62.72;98030.03;4879361;29;20111;-80
2021/01/27 14:59:42;;;;;;;13.40;6.38;;;;;;;2.28;62.44;98025.78;4878275;29;20031;-79
2021/01/27 15:02:08;;;;;;;9.63;5.57;;;;;;;2.26;62.55;98033.97;4878674;29;20115;-80
2021/01/27 15:04:34;;;;;;;12.32;6.80;;;;;;;2.23;62.32;98034.44;4879306;29;20038;-80
2021/01/27 15:07:00;;;;;;;9.40;4.78;;;;;;;2.22;62.52;98038.94;4879068;29;20394;-79
2021/01/27 15:09:25;;;;;;;9.77;4.93;;;;;;;2.19;62.86;98036.75;4878912;29;20037;-79
2021/01/27 15:11:51;;;;;;;13.30;6.07;;;;;;;2.18;63.00;98037.81;4879230;29;20035;-80
2021/01/27 15:14:16;;;;;;;10.18;6.22;;;;;;;2.15;63.06;98034.84;4879486;29;20119;-80
2021/01/27 15:16:42;;;;;;;9.48;5.15;;;;;;;2.12;63.25;98033.50;4878640;29;20029;-80
2021/01/27 15:19:07;;;;;;;10.80;5.93;;;;;;;2.10;62.75;98040.09;4879202;29;20035;-79
2021/01/27 15:21:33;;;;;;;13.55;6.22;;;;;;;2.05;62.58;98049.53;4875332;29;20033;-79
2021/01/27 15:23:58;;;;;;;8.80;4.57;;;;;;;2.03;62.69;98048.19;4879612;29;20478;-79
2021/01/27 15:26:24;;;;;;;9.23;5.43;;;;;;;2.00;62.71;98049.47;4879634;29;20032;-80
2021/01/27 15:29:14;;;;;;;8.85;5.30;;;;;;;1.98;63.11;98056.00;4880174;29;20052;-81
2021/01/27 15:31:40;;;;;;;9.57;4.18;;;;;;;1.94;62.89;98063.59;4876995;29;20025;-81
2021/01/27 15:34:28;;;;;;;7.97;4.22;;;;;;;1.92;62.96;98077.03;4882216;29;20031;-81
2021/01/27 15:37:19;;;;;;;8.70;5.63;;;;;;;1.93;63.16;98075.22;4880087;29;20029;-82
2021/01/27 15:40:47;;;;;;;8.27;4.43;;;;;;;1.90;62.65;98084.41;4884058;29;20119;-82
2021/01/27 15:43:17;;;;;;;5.18;4.25;;;;;;;1.87;63.55;98084.88;4875162;29;20041;-78
2021/01/27 15:45:43;;;;;;;9.10;4.55;;;;;;;1.85;62.99;98079.06;4874831;29;20085;-80
2021/01/27 15:48:12;;;;;;;8.73;4.45;;;;;;;1.84;63.05;98089.84;4877675;29;20029;-80
2021/01/27 15:50:39;;;;;;;8.10;5.13;;;;;;;1.82;63.34;98079.56;4881383;29;20438;-80
2021/01/27 15:56:38;;;;;;;8.80;5.05;;;;;;;1.84;62.76;98098.53;4889789;29;20595;-80
2021/01/27 15:59:05;;;;;;;8.85;4.53;;;;;;;1.85;62.96;98102.00;4885652;29;20032;-79
2021/01/27 16:01:31;;;;;;;7.35;4.18;;;;;;;1.84;62.53;98108.31;4885350;29;20017;-80
2021/01/27 16:03:56;;;;;;;6.30;4.47;;;;;;;1.81;62.15;98108.78;4881638;29;20030;-81
2021/01/27 16:06:25;;;;;;;6.47;4.38;;;;;;;1.79;62.19;98109.03;4947695;23;20068;-82
2021/01/27 16:08:52;;;;;;;7.57;4.50;;;;;;;1.82;62.32;98113.00;4899915;29;20505;-82
2021/01/27 16:11:19;;;;;;;6.70;4.53;;;;;;;1.79;62.08;98113.50;4880157;29;20099;-80
2021/01/27 16:13:44;;;;;;;6.57;4.63;;;;;;;1.80;62.08;98123.81;4879759;29;20482;-73
2021/01/27 16:16:09;;;;;;;9.25;5.05;;;;;;;1.78;62.29;98119.81;4894985;29;20156;-77
2021/01/27 16:18:35;;;;;;;8.05;4.57;;;;;;;1.77;62.25;98132.22;4878294;29;20417;-75
2021/01/27 16:21:01;;;;;;;9.55;5.10;;;;;;;1.77;62.64;98126.94;4877868;29;20111;-77
2021/01/27 16:23:28;;;;;;;6.78;3.85;;;;;;;1.77;62.31;98132.22;4895182;29;20099;-77
2021/01/27 16:25:54;;;;;;;8.50;4.13;;;;;;;1.76;62.13;98141.94;4895341;29;20056;-76
2021/01/27 16:28:22;;;;;;;9.05;4.93;;;;;;;1.76;62.80;98141.94;4894813;29;20100;-78
2021/01/27 16:30:47;;;;;;;7.18;5.40;;;;;;;1.76;62.71;98135.88;4877359;29;20044;-78
2021/01/27 16:33:13;;;;;;;7.07;4.45;;;;;;;1.76;62.52;98149.06;4878451;29;20052;-77
2021/01/27 16:38:17;;;;;;;7.07;4.38;;;;;;;1.75;62.42;98135.06;5383076;23;20052;-83
2021/01/27 16:41:05;;;;;;;7.47;4.50;;;;;;;1.72;62.08;98156.66;4916074;29;20044;-84
2021/01/27 16:43:37;;;;;;;9.57;5.20;;;;;;;1.71;62.41;98149.78;4904145;29;20017;-84
2021/01/27 16:46:22;;;;;;;11.20;5.32;;;;;;;1.72;62.84;98158.47;4919627;29;20089;-84
2021/01/27 16:49:00;;;;;;;8.88;5.63;;;;;;;1.69;62.55;98165.03;4901371;29;20072;-83
2021/01/27 16:51:25;;;;;;;;;;;;;;;1.71;63.09;98157.69;4898653;29;20025;-81
2021/01/27 16:59:01;;;;;;;11.45;5.93;;;;;;;1.67;62.32;98164.47;5724377;23;20024;-81
2021/01/27 17:51:29;;;;;;;7.38;4.75;;;;;;;1.35;63.60;98188.69;5766794;23;20409;-78
2021/01/27 17:53:55;;;;;;;6.80;5.00;;;;;;;1.33;63.08;98197.88;4857216;29;20044;-78
2021/01/27 17:56:20;;;;;;;7.93;4.75;;;;;;;1.32;63.37;98191.81;4860536;29;20033;-80
2021/01/27 17:58:45;;;;;;;9.75;5.65;;;;;;;1.31;63.38;98186.78;4855529;29;20033;-77
2021/01/27 18:01:11;;;;;;;9.52;5.55;;;;;;;1.29;63.14;98194.91;4854471;29;20048;-77
2021/01/27 18:03:37;;;;;;;12.82;5.53;;;;;;;1.29;63.11;98194.91;4837219;29;20400;-77
2021/01/27 18:06:05;;;;;;;9.00;4.63;;;;;;;1.26;62.98;98196.19;4852661;29;20037;-78
2021/01/27 18:08:31;;;;;;;11.70;5.90;;;;;;;1.25;63.17;98191.16;4857471;29;20040;-76
2021/01/27 18:10:56;;;;;;;8.68;5.45;;;;;;;1.27;63.60;98197.00;4840998;29;20026;-77